Time;durP1;ratioP1;P1;durP2;ratioP2;P2;SDS_P1;SDS_P2;PMS_P1;PMS_P2;Temp;Humidity;BMP_temperature;BMP_pressure;BME280_temperature;BME280_humidity;BME280_pressure;Samples;Min_cycle;Max_cycle;Signal;HPM_P1;HPM_P2
2022/01/14 00:00:48;;;;;;;;;40.67;37.67;;;;;-2.82;94.25;101322.22;6183739;23;8799;-72
2022/01/14 00:03:44;;;;;;;;;42.67;41.33;;;;;-2.76;93.75;101317.75;6184052;23;8802;-74
2022/01/14 00:06:39;;;;;;;;;41.00;35.67;;;;;-2.76;94.04;101305.06;6184086;23;8799;-73
2022/01/14 00:09:38;;;;;;;;;26.67;25.67;;;;;-2.83;94.31;101317.84;6184613;23;8858;-73
2022/01/14 00:12:40;;;;;;;;;42.67;42.67;;;;;-2.70;94.62;101324.97;6183536;23;8807;-73
2022/01/14 00:15:35;;;;;;;;;29.67;27.00;;;;;-2.69;94.08;101329.31;6182987;23;8798;-73
2022/01/14 00:18:33;;;;;;;;;40.00;38.00;;;;;-2.59;93.81;101318.81;6183433;23;8861;-74
2022/01/14 00:21:30;;;;;;;;;39.67;37.67;;;;;-2.46;93.34;101310.47;6183778;23;8803;-73
2022/01/14 00:24:31;;;;;;;;;46.67;39.67;;;;;-2.34;93.33;101294.28;6180564;23;8802;-73
2022/01/14 00:33:57;;;;;;;;;45.33;39.33;;;;;-2.45;93.78;101251.72;6185027;23;8790;-73
2022/01/14 00:36:53;;;;;;;;;44.33;41.33;;;;;-2.48;94.05;101244.88;6201605;23;8786;-74
2022/01/14 00:39:49;;;;;;;;;43.67;40.67;;;;;-2.42;94.02;101243.13;6184814;23;8849;-73
2022/01/14 00:42:45;;;;;;;;;35.33;35.33;;;;;-2.43;93.60;101233.38;6184661;23;8778;-74
2022/01/14 00:45:41;;;;;;;;;43.67;42.67;;;;;-2.41;93.91;101220.41;6185016;23;8840;-73
2022/01/14 00:48:38;;;;;;;;;42.00;42.00;;;;;-2.25;94.19;101208.88;6184943;23;8883;-74
2022/01/14 00:51:35;;;;;;;;;40.67;40.00;;;;;-2.35;93.71;101216.78;6184596;23;8904;-73
2022/01/14 00:54:30;;;;;;;;;38.67;34.67;;;;;-2.43;94.68;101214.41;6183814;23;8867;-73
2022/01/14 00:59:14;;;;;;;;;38.33;33.67;;;;;-2.20;94.13;101202.78;6184840;23;8806;-74
2022/01/14 01:00:44;;;;;;;;;39.00;35.33;;;;;-2.17;93.84;101195.00;6184452;23;8790;-72
2022/01/14 01:03:40;;;;;;;;;29.67;29.67;;;;;-2.17;94.02;101195.00;6184856;23;8884;-74
2022/01/14 01:06:36;;;;;;;;;35.67;35.67;;;;;-2.10;93.87;101184.06;6184695;23;8805;-73
2022/01/14 01:09:32;;;;;;;;;42.00;41.67;;;;;-2.05;94.59;101178.75;6184831;23;8822;-74
2022/01/14 01:12:40;;;;;;;;;47.67;45.33;;;;;-2.07;94.32;101183.56;6184371;23;9495;-73
2022/01/14 01:15:36;;;;;;;;;39.00;36.67;;;;;-2.06;94.33;101177.09;6184657;23;8892;-73
2022/01/14 01:18:31;;;;;;;;;49.00;45.67;;;;;-1.95;94.37;101162.72;6182466;23;8821;-74
2022/01/14 01:21:27;;;;;;;;;53.67;46.00;;;;;-1.90;94.09;101172.88;6184495;23;8793;-74
2022/01/14 01:24:22;;;;;;;;;34.67;33.33;;;;;-1.99;94.20;101166.97;6184477;23;8782;-72
2022/01/14 01:27:20;;;;;;;;;39.67;32.67;;;;;-2.07;94.72;101153.75;6183668;23;8793;-72
2022/01/14 01:33:24;;;;;;;;;44.00;43.67;;;;;-1.85;94.76;101162.94;6183554;23;8797;-74
2022/01/14 01:36:20;;;;;;;;;40.00;37.33;;;;;-1.87;95.00;101164.25;6184996;23;9515;-73
2022/01/14 01:39:18;;;;;;;;;45.33;42.33;;;;;-1.80;95.40;101154.94;6185353;23;8801;-73
2022/01/14 01:42:17;;;;;;;;;50.00;43.00;;;;;-1.86;95.48;101152.34;6183933;23;8794;-73
2022/01/14 01:45:20;;;;;;;;;57.00;47.33;;;;;-1.79;95.66;101151.16;6185367;23;8786;-74
2022/01/14 01:48:17;;;;;;;;;8.33;3.00;;;;;-1.73;95.17;101162.94;6167274;23;9504;-73
2022/01/14 01:51:13;;;;;;;;;45.00;43.67;;;;;-1.77;95.69;101150.91;6165241;23;8810;-73
2022/01/14 01:54:09;;;;;;;;;46.00;45.00;;;;;-1.81;96.39;101149.75;6185300;23;8798;-74
2022/01/14 01:57:05;;;;;;;;;45.67;42.67;;;;;-1.71;95.99;101152.66;6185151;23;8805;-74
2022/01/14 02:00:01;;;;;;;;;46.67;40.67;;;;;-1.71;95.85;101126.38;6185006;23;8928;-74
2022/01/14 02:02:58;;;;;;;;;46.00;44.33;;;;;-1.72;95.78;101116.59;6185190;23;8816;-74
2022/01/14 02:05:54;;;;;;;;;54.67;46.00;;;;;-1.65;95.87;101111.03;6185300;23;8778;-74
2022/01/14 02:08:50;;;;;;;;;52.00;45.00;;;;;-1.57;96.04;101116.09;6185161;23;8829;-74
2022/01/14 02:11:46;;;;;;;;;42.00;36.33;;;;;-1.54;95.81;101114.78;6183746;23;8781;-74
2022/01/14 02:27:15;;;;;;;;;45.33;40.67;;;;;-1.33;95.41;101088.88;6186206;23;8805;-73
2022/01/14 02:30:11;;;;;;;;;57.00;47.67;;;;;-1.34;95.23;101089.94;6183722;23;8790;-74
2022/01/14 02:33:08;;;;;;;;;45.67;40.67;;;;;-1.36;95.44;101081.22;6184901;23;8793;-74
2022/01/14 02:36:05;;;;;;;;;61.33;48.33;;;;;-1.37;95.63;101074.16;6184609;23;8794;-74
2022/01/14 02:39:00;;;;;;;;;53.33;46.67;;;;;-1.49;97.04;101066.88;6183941;23;8798;-73
2022/01/14 02:41:56;;;;;;;;;60.33;48.67;;;;;-1.43;96.36;101063.22;6184294;23;8882;-74
2022/01/14 02:44:57;;;;;;;;;48.00;45.00;;;;;-1.42;96.49;101047.75;6165135;23;8825;-74
2022/01/14 02:47:52;;;;;;;;;34.67;33.33;;;;;-1.42;96.35;101037.72;6184393;23;8817;-73
2022/01/14 02:50:58;;;;;;;;;43.67;42.67;;;;;-1.37;96.76;101037.00;6184822;23;8816;-73
2022/01/14 02:53:59;;;;;;;;;38.67;38.67;;;;;-1.61;97.35;101032.72;6184928;23;8798;-73
2022/01/14 02:56:55;;;;;;;;;47.33;45.00;;;;;-1.45;98.25;101030.06;6184758;23;8804;-73
2022/01/14 02:59:51;;;;;;;;;40.00;37.33;;;;;-1.31;97.29;101025.16;6184605;23;8852;-73
2022/01/14 03:02:49;;;;;;;;;30.67;29.67;;;;;-1.27;96.94;101020.06;6184174;23;8793;-72
2022/01/14 03:05:45;;;;;;;;;40.67;36.33;;;;;-1.14;96.78;101012.44;6184367;23;8782;-73
2022/01/14 03:08:41;;;;;;;;;50.67;42.67;;;;;-1.15;96.43;101005.38;6184597;23;8798;-73
2022/01/14 03:11:59;;;;;;;;;42.00;40.67;;;;;-1.15;95.99;100991.81;6184298;23;8873;-73
2022/01/14 03:14:55;;;;;;;;;45.67;45.00;;;;;-1.33;97.12;100975.75;6185644;23;8810;-73
2022/01/14 03:17:51;;;;;;;;;51.67;48.00;;;;;-1.16;96.89;100970.31;6184324;23;8798;-73
2022/01/14 03:20:50;;;;;;;;;52.00;48.00;;;;;-1.26;96.82;100970.16;6184262;23;8798;-73
2022/01/14 03:23:51;;;;;;;;;55.00;50.67;;;;;-1.27;97.50;100955.75;6184292;23;8816;-72
2022/01/14 03:26:48;;;;;;;;;33.33;33.33;;;;;-1.14;97.40;100951.91;6184555;23;8785;-76
2022/01/14 03:29:44;;;;;;;;;46.00;42.00;;;;;-1.18;97.07;100948.84;6183885;23;8824;-74
2022/01/14 03:32:40;;;;;;;;;44.33;43.00;;;;;-1.19;97.69;100939.06;6184181;23;8789;-74
2022/01/14 03:35:36;;;;;;;;;56.67;45.00;;;;;-1.31;98.11;100942.91;6184240;23;8851;-74
2022/01/14 03:38:32;;;;;;;;;44.00;40.67;;;;;-1.09;97.58;100922.13;6184235;23;8890;-74
2022/01/14 03:41:27;;;;;;;;;49.33;45.33;;;;;-1.11;97.72;100926.97;6183773;23;8778;-74
2022/01/14 03:44:23;;;;;;;;;52.67;46.67;;;;;-1.07;96.91;100924.56;6184299;23;8790;-75
2022/01/14 03:47:18;;;;;;;;;45.00;42.33;;;;;-1.20;97.32;100907.56;6184233;23;9560;-72
2022/01/14 03:50:14;;;;;;;;;48.67;45.67;;;;;-1.10;97.46;100909.63;6184282;23;8932;-72
2022/01/14 03:53:12;;;;;;;;;42.67;41.67;;;;;-1.18;97.26;100905.44;6184256;23;8782;-74
2022/01/14 03:56:08;;;;;;;;;44.00;44.00;;;;;-1.09;98.44;100894.97;6184320;23;8832;-73
2022/01/14 03:59:04;;;;;;;;;44.00;40.67;;;;;-0.90;97.47;100884.69;6182812;23;8794;-73
2022/01/14 04:02:00;;;;;;;;;45.00;44.33;;;;;-0.96;97.27;100881.06;6183928;23;8833;-74
2022/01/14 04:04:55;;;;;;;;;47.33;45.00;;;;;-0.90;97.42;100881.97;6184084;23;8777;-74
2022/01/14 04:07:51;;;;;;;;;41.67;39.00;;;;;-0.95;97.33;100873.72;6184741;23;8810;-74
2022/01/14 04:10:50;;;;;;;;;39.00;38.33;;;;;-0.86;97.40;100861.38;6184914;23;9583;-73
2022/01/14 04:13:49;;;;;;;;;35.00;32.67;;;;;-0.92;96.92;100860.50;6183874;23;8840;-74
2022/01/14 04:16:45;;;;;;;;;33.33;33.33;;;;;-0.88;97.98;100860.81;6184072;23;9534;-74
2022/01/14 04:19:41;;;;;;;;;43.00;43.00;;;;;-0.86;98.14;100853.22;6164278;23;8824;-74
2022/01/14 04:22:36;;;;;;;;;36.00;34.33;;;;;-0.76;97.92;100849.84;6183174;23;8800;-74
2022/01/14 04:25:34;;;;;;;;;34.67;33.33;;;;;-0.87;97.76;100848.88;6182990;23;8793;-75
2022/01/14 04:28:34;;;;;;;;;44.33;43.33;;;;;-0.67;98.25;100841.00;6183696;23;8808;-74
2022/01/14 04:31:30;;;;;;;;;44.00;39.33;;;;;-0.88;98.91;100829.03;6183407;23;8805;-74
2022/01/14 04:34:26;;;;;;;;;34.00;34.00;;;;;-0.86;99.03;100818.75;6183465;23;8804;-74
2022/01/14 04:37:22;;;;;;;;;42.67;35.67;;;;;-0.71;99.26;100812.69;6183418;23;8923;-74
2022/01/14 04:40:21;;;;;;;;;58.67;48.00;;;;;-0.77;98.67;100797.38;6182832;23;9468;-74
2022/01/14 04:43:20;;;;;;;;;73.67;57.00;;;;;-0.73;99.11;100795.81;6184879;23;8805;-74
2022/01/14 04:49:23;;;;;;;;;51.33;48.00;;;;;-0.63;99.32;100793.22;6183782;23;8869;-75
2022/01/14 04:52:19;;;;;;;;;53.33;45.00;;;;;-0.70;100.00;100784.44;6183473;23;8797;-75
2022/01/14 04:55:17;;;;;;;;;44.67;43.67;;;;;-0.62;100.00;100781.28;6164096;23;8794;-75
2022/01/14 04:58:13;;;;;;;;;48.33;46.00;;;;;-0.54;100.00;100773.75;6183348;23;8786;-74
2022/01/14 05:01:09;;;;;;;;;52.33;45.00;;;;;-0.49;100.00;100776.53;6183326;23;8798;-74
2022/01/14 05:04:04;;;;;;;;;48.33;45.33;;;;;-0.54;100.00;100774.56;6183309;23;8790;-73
2022/01/14 05:07:03;;;;;;;;;43.00;40.00;;;;;-0.56;100.00;100766.69;6184756;23;8836;-74
2022/01/14 05:12:57;;;;;;;;;48.67;42.00;;;;;-0.39;100.00;100766.56;6185441;23;8797;-75
2022/01/14 05:15:53;;;;;;;;;51.67;45.00;;;;;-0.44;100.00;100754.84;6166624;23;8785;-75
2022/01/14 05:18:49;;;;;;;;;42.67;41.67;;;;;-0.52;100.00;100767.00;6184610;23;9546;-75
2022/01/14 05:21:45;;;;;;;;;34.67;34.33;;;;;-0.46;100.00;100763.28;6165542;23;8793;-75
2022/01/14 05:24:40;;;;;;;;;57.67;46.33;;;;;4.64;100.00;100762.28;6155350;23;8809;-79
2022/01/14 05:27:37;;;;;;;;;51.33;45.00;;;;;4.29;100.00;100763.41;6135729;23;8802;-75
2022/01/14 05:30:32;;;;;;;;;46.00;43.00;;;;;4.19;100.00;100752.56;6155021;23;8852;-76
2022/01/14 05:33:28;;;;;;;;;51.33;43.33;;;;;4.81;100.00;100758.25;6155169;23;8893;-75
2022/01/14 05:36:25;;;;;;;;;63.67;49.00;;;;;4.44;100.00;100746.03;6137084;23;8810;-76
2022/01/14 05:39:20;;;;;;;;;48.50;43.75;;;;;2.85;100.00;100750.06;6155212;23;11698;-76
2022/01/14 05:42:17;;;;;;;;;42.00;41.67;;;;;3.23;100.00;100748.53;6154964;23;11744;-75
2022/01/14 05:45:14;;;;;;;;;51.67;44.67;;;;;3.06;100.00;100746.94;6156407;23;12388;-74
2022/01/14 05:48:10;;;;;;;;;42.67;41.00;;;;;4.31;100.00;100733.03;6155253;23;11589;-74
2022/01/14 05:51:06;;;;;;;;;49.50;42.00;;;;;5.00;100.00;100735.31;6154718;23;11631;-74
2022/01/14 05:54:02;;;;;;;;;39.25;37.00;;;;;5.05;100.00;100723.44;6155071;23;11632;-74
2022/01/14 05:56:58;;;;;;;;;40.50;38.75;;;;;5.03;99.93;100707.28;6155233;23;11615;-74
2022/01/14 05:59:53;;;;;;;;;51.00;43.25;;;;;4.11;98.64;100695.69;6155134;23;11624;-74
2022/01/14 06:02:50;;;;;;;;;30.25;29.75;;;;;3.48;97.82;100703.84;6156258;23;11710;-75
2022/01/14 06:05:46;;;;;;;;;45.25;37.75;;;;;4.06;100.00;100688.34;6154840;23;11709;-77
2022/01/14 06:08:42;;;;;;;;;40.75;38.25;;;;;3.80;95.71;100687.75;6154356;23;11661;-82
2022/01/14 06:11:37;;;;;;;;;61.67;50.67;;;;;3.44;96.45;100687.16;6155100;23;11711;-79
2022/01/14 06:14:33;;;;;;;;;56.50;46.00;;;;;4.17;98.01;100684.41;6154757;23;11602;-79
2022/01/14 06:17:28;;;;;;;;;41.50;35.50;;;;;4.14;97.06;100670.47;6153858;23;11610;-79
2022/01/14 06:20:24;;;;;;;;;49.25;40.00;;;;;3.48;96.86;100674.59;6155983;23;11607;-79
2022/01/14 06:23:21;;;;;;;;;39.75;35.00;;;;;5.13;100.00;100667.97;6168950;23;12288;-80
2022/01/14 06:26:17;;;;;;;;;40.50;40.50;;;;;4.39;94.98;100661.22;6183774;23;11603;-79
2022/01/14 06:29:13;;;;;;;;;35.50;34.00;;;;;3.52;92.04;100648.28;6165332;23;11544;-80
2022/01/14 06:32:09;;;;;;;;;41.25;38.00;;;;;2.84;91.42;100645.44;6185104;23;12274;-80
2022/01/14 06:35:05;;;;;;;;;36.75;35.75;;;;;2.41;95.33;100649.69;6184655;23;11523;-82
2022/01/14 06:38:01;;;;;;;;;37.33;37.00;;;;;1.24;96.40;100639.69;6184461;23;11619;-82
2022/01/14 06:40:57;;;;;;;;;40.67;40.67;;;;;0.64;100.00;100635.69;6184442;23;11510;-81
2022/01/14 06:43:52;;;;;;;;;32.67;31.33;;;;;0.45;100.00;100635.31;6165161;23;12244;-80
2022/01/14 06:46:48;;;;;;;;;35.00;34.00;;;;;0.40;100.00;100634.50;6165591;23;8844;-83
2022/01/14 06:49:45;;;;;;;;;34.33;34.00;;;;;0.27;100.00;100603.97;6184540;23;8786;-82
2022/01/14 06:52:41;;;;;;;;;17.67;17.67;;;;;0.30;100.00;100590.91;6184420;23;8801;-82
2022/01/14 06:55:36;;;;;;;;;32.67;32.67;;;;;0.27;100.00;100600.44;6184630;23;8785;-82
2022/01/14 06:58:33;;;;;;;;;33.67;33.67;;;;;0.34;100.00;100590.13;6182552;23;8943;-82
2022/01/14 07:01:29;;;;;;;;;33.67;33.67;;;;;0.24;100.00;100592.81;6184775;23;8778;-81
2022/01/14 07:04:24;;;;;;;;;36.00;34.00;;;;;0.35;100.00;100580.88;6165906;23;8942;-80
2022/01/14 07:07:20;;;;;;;;;40.33;39.00;;;;;0.37;100.00;100572.44;6185569;23;8794;-80
2022/01/14 07:10:16;;;;;;;;;30.33;30.33;;;;;0.44;100.00;100571.09;6185237;23;8809;-80
2022/01/14 07:13:11;;;;;;;;;30.67;30.67;;;;;0.44;100.00;100564.84;6184725;23;8785;-76
2022/01/14 07:16:07;;;;;;;;;30.33;30.33;;;;;0.51;100.00;100554.53;6183928;23;8900;-80
2022/01/14 07:19:03;;;;;;;;;19.67;19.33;;;;;0.57;100.00;100549.94;6184543;23;8797;-79
2022/01/14 07:21:59;;;;;;;;;21.33;21.33;;;;;0.66;100.00;100548.31;6184409;23;8907;-81
2022/01/14 07:24:54;;;;;;;;;31.67;27.67;;;;;0.74;100.00;100543.16;6154806;23;8805;-82
2022/01/14 07:27:50;;;;;;;;;38.00;35.00;;;;;0.73;100.00;100527.91;6156526;23;8840;-82
2022/01/14 07:30:45;;;;;;;;;26.33;26.33;;;;;0.75;100.00;100538.53;6135417;23;8884;-82
2022/01/14 07:33:41;;;;;;;;;36.00;34.00;;;;;0.76;100.00;100519.22;6134874;23;8900;-83
2022/01/14 07:36:37;;;;;;;;;41.33;32.33;;;;;0.85;100.00;100511.34;6153108;23;8806;-84
2022/01/14 07:39:32;;;;;;;;;27.67;26.33;;;;;0.92;100.00;100517.34;6153963;23;8885;-81
2022/01/14 07:42:28;;;;;;;;;29.67;27.67;;;;;0.90;100.00;100503.16;6155311;23;8813;-82
2022/01/14 07:45:23;;;;;;;;;35.00;33.33;;;;;0.92;100.00;100513.78;6136121;23;8826;-81
2022/01/14 07:48:19;;;;;;;;;35.67;35.67;;;;;1.01;100.00;100504.00;6134732;23;8794;-80
2022/01/14 07:51:14;;;;;;;;;35.00;27.33;;;;;0.98;100.00;100508.06;6153887;23;8813;-79
2022/01/14 07:54:10;;;;;;;;;36.00;33.00;;;;;1.15;100.00;100498.81;6154029;23;8799;-80
2022/01/14 07:57:08;;;;;;;;;31.67;31.67;;;;;1.11;100.00;100493.91;6153729;23;9569;-80
2022/01/14 08:00:07;;;;;;;;;16.33;16.33;;;;;1.18;100.00;100482.75;6134186;23;8809;-81
2022/01/14 08:03:03;;;;;;;;;27.67;27.67;;;;;1.25;100.00;100468.84;6153013;23;8814;-81
2022/01/14 08:06:00;;;;;;;;;35.00;33.00;;;;;1.31;100.00;100470.50;6152879;23;8789;-83
2022/01/14 08:08:56;;;;;;;;;30.00;28.00;;;;;1.23;100.00;100465.59;6155936;23;11598;-81
2022/01/14 08:11:52;;;;;;;;;32.00;25.00;;;;;1.31;100.00;100470.50;6136024;23;11586;-80
2022/01/14 08:14:48;;;;;;;;;34.33;29.67;;;;;1.41;100.00;100443.22;6155784;23;11644;-84
2022/01/14 08:17:44;;;;;;;;;32.00;24.00;;;;;1.35;100.00;100447.84;6135185;23;11603;-82
2022/01/14 08:20:39;;;;;;;;;33.33;33.33;;;;;1.33;100.00;100430.97;6115820;23;11603;-85
2022/01/14 08:23:35;;;;;;;;;23.67;23.67;;;;;1.39;100.00;100423.59;6171357;23;8813;-80
2022/01/14 08:26:30;;;;;;;;;30.33;30.33;;;;;1.44;100.00;100411.88;6182004;23;11498;-80
2022/01/14 08:29:28;;;;;;;;;27.67;27.67;;;;;1.41;100.00;100404.25;6183517;23;8833;-82
2022/01/14 08:32:23;;;;;;;;;28.67;26.00;;;;;1.46;100.00;100396.03;6183331;23;8793;-84
2022/01/14 08:35:19;;;;;;;;;27.00;27.00;;;;;1.49;100.00;100398.22;6183640;23;11502;-84
2022/01/14 08:38:15;;;;;;;;;25.67;25.67;;;;;1.54;100.00;100393.59;6182615;23;11585;-80
2022/01/14 08:41:10;;;;;;;;;26.25;23.75;;;;;1.52;100.00;100373.13;6183078;23;11516;-80
2022/01/14 08:44:06;;;;;;;;;34.33;34.33;;;;;1.59;100.00;100362.75;6184334;23;11480;-82
2022/01/14 08:47:02;;;;;;;;;30.67;30.67;;;;;1.58;100.00;100361.13;6184167;23;9554;-81
2022/01/14 08:49:58;;;;;;;;;36.00;36.00;;;;;1.64;100.00;100349.09;6185256;23;11500;-84
2022/01/14 08:52:53;;;;;;;;;35.67;33.67;;;;;1.83;100.00;100336.44;6185497;23;8888;-81
2022/01/14 08:55:49;;;;;;;;;25.33;25.33;;;;;1.70;100.00;100330.81;6185100;23;11599;-80
2022/01/14 08:58:45;;;;;;;;;23.67;23.67;;;;;1.64;100.00;100327.31;6165811;23;11508;-80
2022/01/14 09:01:42;;;;;;;;;36.33;36.33;;;;;1.66;100.00;100312.28;6184458;23;11525;-84
2022/01/14 09:04:37;;;;;;;;;29.67;27.00;;;;;1.65;100.00;100307.94;6183933;23;11515;-81
2022/01/14 09:07:33;;;;;;;;;38.67;36.33;;;;;1.55;100.00;100310.72;6185088;23;11555;-82
2022/01/14 09:10:29;;;;;;;;;37.33;34.00;;;;;1.63;100.00;100304.69;6187631;23;8797;-81
2022/01/14 09:13:24;;;;;;;;;42.33;39.67;;;;;1.65;100.00;100299.75;6186160;23;11511;-81
2022/01/14 09:16:20;;;;;;;;;21.00;20.67;;;;;1.64;100.00;100289.94;6186285;23;8782;-81
2022/01/14 09:19:16;;;;;;;;;36.00;30.00;;;;;1.49;100.00;100287.31;6186073;23;8797;-82
2022/01/14 09:22:15;;;;;;;;;25.33;25.33;;;;;1.48;100.00;100279.41;6184660;23;8798;-81
2022/01/14 09:25:11;;;;;;;;;25.00;25.00;;;;;1.59;100.00;100272.81;6187055;23;11662;-83
2022/01/14 09:28:07;;;;;;;;;35.00;35.00;;;;;1.71;100.00;100267.03;6185696;23;11575;-81
2022/01/14 09:31:02;;;;;;;;;36.00;32.67;;;;;1.69;100.00;100240.06;6165935;23;8829;-81
2022/01/14 09:33:58;;;;;;;;;33.00;31.33;;;;;1.60;100.00;100234.34;6166234;23;8814;-81
2022/01/14 09:36:54;;;;;;;;;38.33;31.00;;;;;1.67;100.00;100218.50;6185743;23;8880;-81
2022/01/14 09:39:49;;;;;;;;;32.67;30.67;;;;;1.70;100.00;100214.41;6185862;23;8798;-82
2022/01/14 09:42:50;;;;;;;;;39.00;39.00;;;;;1.87;100.00;100203.09;6185405;23;8794;-81
2022/01/14 09:45:45;;;;;;;;;36.00;36.00;;;;;1.92;100.00;100198.44;6185415;23;8777;-82
2022/01/14 09:48:41;;;;;;;;;41.00;38.33;;;;;1.80;100.00;100186.25;6184727;23;11498;-83
2022/01/14 09:51:37;;;;;;;;;30.00;30.00;;;;;1.87;100.00;100178.56;6188868;23;11524;-82
2022/01/14 09:54:33;;;;;;;;;36.00;33.67;;;;;2.06;100.00;100173.19;6187876;23;11533;-81
2022/01/14 09:57:28;;;;;;;;;31.33;31.33;;;;;2.10;100.00;100160.63;6185430;23;11523;-82
2022/01/14 10:00:24;;;;;;;;;34.25;32.50;;;;;2.07;100.00;100147.56;6186207;23;11503;-83
2022/01/14 10:03:22;;;;;;;;;17.67;17.67;;;;;2.20;100.00;100142.25;6165395;23;11588;-82
2022/01/14 10:06:54;;;;;;;;;34.00;32.33;;;;;2.15;100.00;100144.22;6165365;23;11498;-82
2022/01/14 10:09:57;;;;;;;;;35.00;33.75;;;;;2.05;100.00;100133.41;6064641;23;12323;-83
2022/01/14 10:12:52;;;;;;;;;20.50;20.50;;;;;2.08;100.00;100113.75;6184350;23;11561;-82
2022/01/14 10:16:10;;;;;;;;;28.33;28.00;;;;;2.03;100.00;100122.78;6166867;23;11607;-83
2022/01/14 10:19:20;;;;;;;;;27.33;27.33;;;;;2.14;100.00;100115.28;6186481;23;11634;-79
2022/01/14 10:22:29;;;;;;;;;29.33;29.33;;;;;2.09;100.00;100116.19;6184430;23;11586;-83
2022/01/14 10:25:27;;;;;;;;;24.00;24.00;;;;;2.07;100.00;100099.28;6186892;23;11534;-83
2022/01/14 10:28:23;;;;;;;;;29.75;28.00;;;;;2.22;100.00;100087.38;6165699;23;11593;-83
2022/01/14 10:31:30;;;;;;;;;34.00;32.33;;;;;2.09;100.00;100088.91;6166303;23;12296;-82
2022/01/14 10:34:26;;;;;;;;;29.00;28.50;;;;;2.03;100.00;100092.78;6165515;23;11647;-82
2022/01/14 10:37:22;;;;;;;;;27.33;26.00;;;;;2.07;100.00;100065.72;6187011;23;11601;-80
2022/01/14 10:40:21;;;;;;;;;22.50;22.50;;;;;2.08;100.00;100060.00;6184552;23;11546;-81
2022/01/14 10:43:21;;;;;;;;;24.75;24.25;;;;;2.23;100.00;100045.38;6184589;23;11511;-81
2022/01/14 10:46:16;;;;;;;;;25.00;25.00;;;;;2.38;100.00;100047.91;6185691;23;11508;-80
2022/01/14 10:49:32;;;;;;;;;21.25;21.25;;;;;2.41;100.00;100035.59;6184357;23;11563;-81
2022/01/14 10:52:50;;;;;;;;;16.00;16.00;;;;;2.49;100.00;100024.84;6184429;23;11497;-77
2022/01/14 10:55:50;;;;;;;;;19.50;18.25;;;;;2.76;100.00;100017.91;6182977;23;11532;-76
2022/01/14 10:58:51;;;;;;;;;16.75;16.75;;;;;2.70;100.00;100010.91;6184116;23;11534;-75
2022/01/14 11:01:48;;;;;;;;;19.00;18.00;;;;;2.84;100.00;100010.97;6183398;23;11502;-75
2022/01/14 11:05:21;;;;;;;;;19.50;17.75;;;;;2.73;100.00;99994.75;6183757;23;11494;-74
2022/01/14 11:08:17;;;;;;;;;19.75;19.75;;;;;2.82;100.00;99981.22;6064056;23;11612;-76
2022/01/14 11:11:14;;;;;;;;;24.50;24.50;;;;;2.85;100.00;99977.13;6183999;23;11512;-77
2022/01/14 11:14:09;;;;;;;;;18.25;18.25;;;;;2.94;100.00;99984.34;6184123;23;11521;-75
2022/01/14 11:17:08;;;;;;;;;18.75;18.50;;;;;2.93;100.00;99971.78;6182509;23;11515;-75
2022/01/14 11:20:07;;;;;;;;;14.75;14.75;;;;;2.90;100.00;99958.72;6183633;23;11514;-75
2022/01/14 11:23:15;;;;;;;;;17.50;17.50;;;;;2.99;100.00;99956.94;6162851;23;11487;-76
2022/01/14 11:26:17;;;;;;;;;21.25;21.25;;;;;2.95;100.00;99946.91;6183924;23;12269;-77
2022/01/14 11:29:15;;;;;;;;;15.00;13.00;;;;;2.96;100.00;99932.94;6183028;23;11523;-75
2022/01/14 11:32:11;;;;;;;;;12.50;12.50;;;;;3.08;100.00;99935.22;6184033;23;11482;-75
2022/01/14 11:35:21;;;;;;;;;15.00;15.00;;;;;2.93;100.00;99925.34;6146004;23;11483;-75
2022/01/14 11:38:33;;;;;;;;;18.50;18.50;;;;;2.89;100.00;99921.59;6183825;23;11488;-76
2022/01/14 11:42:01;;;;;;;;;21.50;20.00;;;;;2.80;100.00;99912.44;6184143;23;11497;-75
2022/01/14 11:45:00;;;;;;;;;17.25;17.25;;;;;2.74;100.00;99917.19;6183450;23;11507;-75
2022/01/14 11:47:31;;;;;;;;;18.25;18.25;;;;;2.72;100.00;99908.47;6193451;23;11502;-75
2022/01/14 11:50:30;;;;;;;;;13.50;13.50;;;;;2.64;100.00;99900.16;6163649;23;11509;-78
2022/01/14 11:53:44;;;;;;;;;14.25;14.25;;;;;2.70;100.00;99899.78;6163557;23;11770;-76
2022/01/14 11:56:45;;;;;;;;;13.00;13.00;;;;;2.67;100.00;99894.91;6183729;23;11501;-75
2022/01/14 11:59:42;;;;;;;;;16.50;15.75;;;;;2.54;100.00;99894.88;6183775;23;12174;-75
2022/01/14 12:02:40;;;;;;;;;16.75;16.75;;;;;2.75;100.00;99894.22;6185027;23;11470;-75
2022/01/14 12:05:55;;;;;;;;;14.25;14.25;;;;;2.75;100.00;99887.94;6183243;23;12234;-78
2022/01/14 12:09:03;;;;;;;;;10.00;10.00;;;;;2.61;100.00;99887.13;6181927;23;12292;-75
2022/01/14 12:12:31;;;;;;;;;12.00;12.00;;;;;2.60;100.00;99883.56;6183618;23;11521;-74
2022/01/14 12:15:47;;;;;;;;;11.75;11.75;;;;;2.67;100.00;99869.53;6163935;23;11507;-74
2022/01/14 12:19:03;;;;;;;;;14.25;14.25;;;;;2.55;100.00;99852.81;6163628;23;11530;-75
2022/01/14 12:21:59;;;;;;;;;19.50;19.50;;;;;2.63;100.00;99854.88;6184697;23;11522;-75
2022/01/14 12:24:58;;;;;;;;;17.50;17.50;;;;;2.56;100.00;99840.78;6183309;23;11563;-74
2022/01/14 12:27:53;;;;;;;;;16.00;16.00;;;;;2.62;100.00;99826.75;6183426;23;11508;-75
2022/01/14 12:31:03;;;;;;;;;22.50;21.25;;;;;2.65;100.00;99830.78;6183689;23;11574;-75
2022/01/14 12:34:08;;;;;;;;;17.50;17.50;;;;;2.65;100.00;99812.50;6164155;23;11596;-75
2022/01/14 12:37:05;;;;;;;;;19.00;19.00;;;;;2.66;100.00;99810.56;6183510;23;11561;-74
2022/01/14 12:40:08;;;;;;;;;18.50;18.00;;;;;2.68;100.00;99792.78;6183616;23;11504;-76
2022/01/14 12:43:12;;;;;;;;;16.50;16.50;;;;;2.98;100.00;99796.06;6183584;23;11584;-76
2022/01/14 12:46:33;;;;;;;;;19.50;18.00;;;;;2.74;100.00;99804.41;6182997;23;11493;-74
2022/01/14 12:49:40;;;;;;;;;15.25;15.25;;;;;2.73;100.00;99789.16;6182331;23;11544;-76
2022/01/14 12:52:48;;;;;;;;;13.00;13.00;;;;;2.70;100.00;99787.03;6182282;23;11681;-77
2022/01/14 12:55:44;;;;;;;;;16.25;16.25;;;;;2.63;100.00;99773.78;6182026;23;11487;-76
2022/01/14 12:59:00;;;;;;;;;10.00;10.00;;;;;2.50;100.00;99772.63;6162381;23;11530;-74
2022/01/14 13:01:55;;;;;;;;;15.00;15.00;;;;;2.64;100.00;99769.13;6182880;23;11510;-73
2022/01/14 13:05:05;;;;;;;;;15.75;15.75;;;;;2.66;100.00;99754.06;6183647;23;11522;-75
2022/01/14 13:08:00;;;;;;;;;18.25;18.25;;;;;2.50;100.00;99750.78;6182234;23;11525;-76
2022/01/14 13:11:06;;;;;;;;;14.75;14.75;;;;;2.47;100.00;99745.94;6183350;23;11507;-77
2022/01/14 13:14:04;;;;;;;;;26.25;23.50;;;;;2.42;100.00;99739.75;6183156;23;12289;-75
2022/01/14 13:17:04;;;;;;;;;24.25;22.25;;;;;2.56;100.00;99731.59;6183235;23;11641;-76
2022/01/14 13:20:04;;;;;;;;;21.50;19.50;;;;;2.55;100.00;99744.44;6165275;23;11542;-75
2022/01/14 13:23:00;;;;;;;;;24.25;24.25;;;;;2.61;100.00;99728.78;6182844;23;11583;-76
2022/01/14 13:26:00;;;;;;;;;25.25;25.25;;;;;2.69;100.00;99730.81;6181734;23;11607;-74
2022/01/14 13:28:57;;;;;;;;;21.00;20.50;;;;;2.69;100.00;99728.91;6181877;23;11580;-76
2022/01/14 13:31:53;;;;;;;;;14.75;14.00;;;;;2.83;100.00;99726.16;6183382;23;12342;-76
2022/01/14 13:35:16;;;;;;;;;24.75;24.25;;;;;2.84;100.00;99727.81;6184709;23;11508;-75
2022/01/14 13:38:14;;;;;;;;;24.50;23.00;;;;;2.81;100.00;99717.47;6184598;23;11622;-76
2022/01/14 13:41:10;;;;;;;;;22.50;21.00;;;;;2.73;100.00;99718.97;6184494;23;11590;-75
2022/01/14 13:44:27;;;;;;;;;18.00;18.00;;;;;2.75;100.00;99707.75;6184744;23;11535;-75
2022/01/14 13:47:24;;;;;;;;;21.00;20.25;;;;;2.87;100.00;99699.88;6184592;23;11549;-76
2022/01/14 13:50:19;;;;;;;;;16.00;13.75;;;;;2.85;100.00;99693.91;6184552;23;11517;-76
2022/01/14 13:53:19;;;;;;;;;15.00;15.00;;;;;2.78;100.00;99702.50;6165062;23;11545;-76
2022/01/14 13:56:21;;;;;;;;;17.75;16.25;;;;;2.89;100.00;99688.63;6183922;23;11624;-77
2022/01/14 13:59:20;;;;;;;;;20.50;19.75;;;;;2.86;100.00;99681.88;6184191;23;11615;-77
2022/01/14 14:02:26;;;;;;;;;15.00;15.00;;;;;2.82;100.00;99686.31;6183367;23;11501;-77
2022/01/14 14:05:35;;;;;;;;;17.75;15.00;;;;;2.92;100.00;99668.94;6164508;23;11494;-76